Time;durP1;ratioP1;P1;durP2;ratioP2;P2;SDS_P1;SDS_P2;PMS_P1;PMS_P2;Temp;Humidity;BMP_temperature;BMP_pressure;BME280_temperature;BME280_humidity;BME280_pressure;Samples;Min_cycle;Max_cycle;Signal;HPM_P1;HPM_P2
2022/03/27 00:02:21;;;;;;;5.17;1.65;;;;;;;4.43;42.40;99427.06;1692742;83;21031;-69
2022/03/27 00:04:48;;;;;;;2.62;1.12;;;;;;;4.41;42.47;99431.63;1694175;84;20978;-67
2022/03/27 00:07:16;;;;;;;4.95;1.55;;;;;;;4.35;42.57;99439.57;1693700;84;21120;-67
2022/03/27 00:09:43;;;;;;;3.90;1.40;;;;;;;4.33;42.66;99442.80;1693950;84;21347;-68
2022/03/27 00:12:11;;;;;;;3.42;1.32;;;;;;;4.30;42.73;99441.27;1693889;84;21017;-68
2022/03/27 00:14:38;;;;;;;5.92;1.52;;;;;;;4.29;42.71;99453.26;1694418;84;21088;-68
2022/03/27 00:17:05;;;;;;;2.90;1.15;;;;;;;4.26;42.86;99454.36;1694140;84;20966;-67
2022/03/27 00:19:34;;;;;;;2.80;1.42;;;;;;;4.23;43.00;99455.93;1694483;84;21476;-67
2022/03/27 00:22:01;;;;;;;4.22;1.50;;;;;;;4.20;43.08;99447.45;1694203;84;21261;-67
2022/03/27 00:24:28;;;;;;;3.35;1.80;;;;;;;4.17;43.18;99454.31;1693897;84;21081;-67
2022/03/27 00:26:56;;;;;;;4.50;1.65;;;;;;;4.14;43.21;99460.67;1692192;84;21026;-66
2022/03/27 00:29:23;;;;;;;4.25;1.77;;;;;;;4.12;43.31;99465.72;1694183;84;20924;-66
2022/03/27 00:31:53;;;;;;;3.65;1.40;;;;;;;4.10;43.41;99463.67;1693452;84;21452;-67
2022/03/27 00:34:21;;;;;;;4.22;1.60;;;;;;;4.04;43.59;99468.16;1694151;84;21253;-68
2022/03/27 00:36:49;;;;;;;5.65;1.37;;;;;;;4.02;43.69;99474.02;1692383;84;20947;-67
2022/03/27 00:39:16;;;;;;;4.33;1.67;;;;;;;3.99;43.82;99479.56;1694204;84;21120;-67
2022/03/27 00:41:43;;;;;;;4.55;1.30;;;;;;;3.95;43.78;99476.34;1693681;84;21094;-69
2022/03/27 00:44:10;;;;;;;3.55;1.40;;;;;;;3.91;43.71;99483.31;1694411;84;21291;-67
2022/03/27 00:46:37;;;;;;;6.30;1.47;;;;;;;3.88;43.83;99485.73;1693895;84;21316;-67
2022/03/27 00:49:05;;;;;;;4.83;1.30;;;;;;;3.87;43.94;99483.20;1693782;84;21010;-67
2022/03/27 00:51:33;;;;;;;4.15;1.30;;;;;;;3.86;44.05;99491.57;1699704;84;20950;-69
2022/03/27 00:54:00;;;;;;;3.12;1.62;;;;;;;3.83;44.10;99494.48;1699720;84;21014;-68
2022/03/27 00:56:27;;;;;;;3.70;1.17;;;;;;;3.80;44.21;99493.89;1701804;83;20993;-68
2022/03/27 00:58:55;;;;;;;4.33;1.45;;;;;;;3.76;44.27;99490.67;1700333;83;21282;-68
2022/03/27 01:01:25;;;;;;;2.62;1.30;;;;;;;3.72;44.35;99497.16;1702514;83;21057;-69
2022/03/27 01:03:54;;;;;;;3.02;1.60;;;;;;;3.71;44.34;99502.06;1671635;84;20973;-70
2022/03/27 01:06:36;;;;;;;2.22;1.30;;;;;;;3.70;44.47;99495.95;1702514;83;20927;-68
2022/03/27 01:11:57;;;;;;;4.05;1.70;;;;;;;3.66;44.57;99503.77;1699780;84;21169;-68
2022/03/27 01:14:32;;;;;;;3.08;1.62;;;;;;;3.65;44.68;99515.73;1699234;84;20883;-68
2022/03/27 01:17:08;;;;;;;7.50;1.32;;;;;;;3.65;44.70;99524.95;1700733;83;21544;-69
2022/03/27 01:19:44;;;;;;;3.45;1.15;;;;;;;3.62;44.68;99520.73;1700644;83;21497;-70
2022/03/27 01:22:11;;;;;;;3.15;1.22;;;;;;;3.62;44.73;99522.56;1699202;84;21017;-69
2022/03/27 01:24:38;;;;;;;1.50;1.00;;;;;;;3.58;44.76;99530.33;1700534;83;21153;-67
2022/03/27 01:27:05;;;;;;;3.05;1.12;;;;;;;3.55;44.80;99536.68;1699480;83;21059;-67
2022/03/27 01:29:34;;;;;;;3.33;1.57;;;;;;;3.53;44.97;99532.50;1699646;84;20970;-69
2022/03/27 01:32:01;;;;;;;3.08;1.00;;;;;;;3.51;45.08;99545.80;1700511;83;20981;-67
2022/03/27 01:34:28;;;;;;;2.80;1.32;;;;;;;3.47;45.08;99543.04;1701238;83;21034;-67
2022/03/27 01:36:55;;;;;;;1.42;1.00;;;;;;;3.46;45.18;99547.12;1700005;83;21488;-67
2022/03/27 01:39:22;;;;;;;3.20;1.20;;;;;;;3.44;45.24;99559.06;1699615;84;20910;-68
2022/03/27 01:41:50;;;;;;;2.60;1.30;;;;;;;3.43;45.28;99549.99;1700725;83;21578;-67
2022/03/27 01:44:17;;;;;;;2.15;0.98;;;;;;;3.42;45.30;99557.04;1699757;84;21128;-67
2022/03/27 01:46:45;;;;;;;4.70;1.27;;;;;;;3.40;45.35;99556.34;1705315;83;21002;-67
2022/03/27 01:49:13;;;;;;;4.75;1.35;;;;;;;3.36;45.28;99563.29;1700249;83;21239;-66
2022/03/27 01:51:41;;;;;;;2.40;1.15;;;;;;;3.35;45.36;99572.97;1700318;83;21006;-67
2022/03/27 01:54:08;;;;;;;1.80;1.10;;;;;;;3.34;45.37;99565.18;1699721;84;20985;-68
2022/03/27 01:56:37;;;;;;;2.05;1.12;;;;;;;3.32;45.51;99573.68;1707396;83;20955;-67
2022/03/27 01:59:05;;;;;;;2.55;1.35;;;;;;;3.30;45.47;99578.23;1698489;83;21021;-66
2022/03/27 02:01:35;;;;;;;4.28;1.12;;;;;;;3.27;45.53;99579.78;1699521;84;20970;-68
2022/03/27 02:04:03;;;;;;;4.10;1.20;;;;;;;3.24;45.48;99581.33;1700345;83;20969;-69
2022/03/27 02:06:32;;;;;;;1.80;1.22;;;;;;;3.22;45.39;99581.94;1704188;83;20871;-68
2022/03/27 02:09:01;;;;;;;4.72;1.25;;;;;;;3.22;45.46;99586.73;1700431;83;21001;-66
2022/03/27 02:11:29;;;;;;;3.35;1.20;;;;;;;3.23;45.45;99592.36;1700431;83;20974;-67
2022/03/27 02:13:56;;;;;;;1.62;1.05;;;;;;;3.19;45.58;99594.01;1700540;83;21307;-67
2022/03/27 02:16:24;;;;;;;2.30;1.00;;;;;;;3.16;45.67;99602.98;1702655;83;20950;-69
2022/03/27 02:18:51;;;;;;;4.85;1.52;;;;;;;3.16;45.80;99596.41;1697801;83;21447;-67
2022/03/27 02:21:19;;;;;;;6.40;1.37;;;;;;;3.15;45.92;99599.16;1700775;83;21017;-67
2022/03/27 02:23:46;;;;;;;2.67;1.10;;;;;;;3.09;46.01;99613.63;1699689;84;21020;-67
2022/03/27 02:26:13;;;;;;;2.08;1.27;;;;;;;3.08;46.04;99617.20;1703641;83;21291;-68
2022/03/27 02:28:41;;;;;;;1.70;1.00;;;;;;;3.07;46.00;99616.86;1694864;84;21427;-67
2022/03/27 02:31:09;;;;;;;3.25;1.12;;;;;;;3.02;46.07;99626.89;1699594;84;21002;-67
2022/03/27 02:33:37;;;;;;;3.85;1.30;;;;;;;3.00;46.22;99630.09;1700494;83;21033;-67
2022/03/27 02:36:08;;;;;;;2.15;1.10;;;;;;;2.97;46.26;99630.36;1700612;83;20961;-66
2022/03/27 02:38:36;;;;;;;3.58;1.17;;;;;;;2.92;46.43;99636.45;1701728;83;21161;-66
2022/03/27 02:41:06;;;;;;;2.45;1.10;;;;;;;2.87;46.48;99639.41;1700314;83;20958;-66
2022/03/27 02:43:34;;;;;;;2.60;1.10;;;;;;;2.84;46.47;99640.14;1699776;84;21077;-67
2022/03/27 02:46:01;;;;;;;4.17;1.20;;;;;;;2.83;46.56;99642.39;1700398;83;21108;-66
2022/03/27 02:48:28;;;;;;;4.72;1.20;;;;;;;2.82;46.69;99648.13;1700874;83;20978;-67
2022/03/27 02:50:55;;;;;;;1.42;1.32;;;;;;;2.79;46.78;99647.04;1699432;83;21322;-67
2022/03/27 02:53:23;;;;;;;1.85;0.82;;;;;;;2.77;46.79;99649.42;1700401;83;20946;-67
2022/03/27 02:55:51;;;;;;;1.52;1.15;;;;;;;2.77;46.68;99649.42;1699761;84;20974;-67
2022/03/27 02:58:20;;;;;;;2.75;1.00;;;;;;;2.77;46.69;99654.68;1700853;83;21038;-66
2022/03/27 03:00:49;;;;;;;1.07;0.88;;;;;;;2.74;46.61;99662.32;1699795;84;20949;-67
2022/03/27 03:03:16;;;;;;;2.00;1.00;;;;;;;2.74;46.47;99661.51;1700990;83;21312;-67
2022/03/27 03:05:44;;;;;;;3.35;1.25;;;;;;;2.74;46.40;99661.00;1701898;83;20982;-67
2022/03/27 03:08:12;;;;;;;2.27;1.10;;;;;;;2.72;46.44;99659.45;1699801;84;21594;-68
2022/03/27 03:10:41;;;;;;;2.30;1.40;;;;;;;2.70;46.46;99662.67;1700530;83;20966;-67
2022/03/27 03:13:10;;;;;;;4.42;2.00;;;;;;;2.66;46.55;99666.00;1699726;84;21010;-67
2022/03/27 03:15:41;;;;;;;3.12;1.50;;;;;;;2.62;46.67;99669.83;1700828;83;20914;-67
2022/03/27 03:18:10;;;;;;;2.27;1.00;;;;;;;2.57;46.71;99669.80;1690335;83;21113;-67
2022/03/27 03:20:39;;;;;;;1.95;1.10;;;;;;;2.55;46.83;99667.78;1700555;83;20970;-67
2022/03/27 03:23:08;;;;;;;2.65;0.90;;;;;;;2.55;46.84;99658.11;1698735;83;21076;-67
2022/03/27 03:25:36;;;;;;;2.22;1.10;;;;;;;2.57;46.83;99677.69;1698916;83;21061;-67
2022/03/27 03:28:04;;;;;;;2.47;1.07;;;;;;;2.56;46.80;99675.53;1700732;83;21852;-67
2022/03/27 03:30:32;;;;;;;2.10;1.27;;;;;;;2.55;46.78;99669.09;1699851;83;20871;-67
2022/03/27 03:32:59;;;;;;;2.42;0.82;;;;;;;2.53;46.76;99681.52;1702148;83;21046;-69
2022/03/27 03:35:26;;;;;;;1.72;1.17;;;;;;;2.50;46.76;99679.45;1702990;83;21131;-67
2022/03/27 03:37:54;;;;;;;5.12;1.67;;;;;;;2.46;46.83;99687.20;1700537;83;20914;-66
2022/03/27 03:40:21;;;;;;;1.27;0.80;;;;;;;2.44;46.89;99685.65;1699711;84;22186;-67
2022/03/27 03:42:49;;;;;;;2.58;1.10;;;;;;;2.40;46.94;99682.88;1701453;83;20965;-67
2022/03/27 03:45:18;;;;;;;2.12;1.10;;;;;;;2.35;46.95;99692.41;1706069;83;21085;-67
2022/03/27 03:47:45;;;;;;;7.72;1.40;;;;;;;2.32;46.93;99697.88;1699859;83;20974;-68
2022/03/27 03:50:13;;;;;;;5.00;0.80;;;;;;;2.31;46.81;99700.64;1699684;83;21539;-67
2022/03/27 03:52:41;;;;;;;3.50;0.95;;;;;;;2.29;46.87;99716.52;1699817;84;21191;-67
2022/03/27 03:55:11;;;;;;;4.40;1.05;;;;;;;2.31;46.83;99714.61;1700609;83;21091;-67
2022/03/27 03:57:38;;;;;;;2.25;1.15;;;;;;;2.30;46.81;99707.67;1700745;83;21527;-67
2022/03/27 04:00:08;;;;;;;2.15;1.45;;;;;;;2.29;46.70;99721.77;1699074;83;20970;-65
2022/03/27 04:02:38;;;;;;;1.85;1.02;;;;;;;2.28;46.50;99725.33;1699789;84;21030;-66
2022/03/27 04:05:07;;;;;;;2.17;1.00;;;;;;;2.28;46.46;99729.73;1701099;83;21464;-67
2022/03/27 04:07:34;;;;;;;6.00;1.00;;;;;;;2.29;46.39;99741.92;1700457;83;20915;-67
2022/03/27 04:10:04;;;;;;;4.25;1.12;;;;;;;2.29;46.31;99749.80;1700617;83;21021;-67
2022/03/27 04:12:33;;;;;;;2.10;0.93;;;;;;;2.28;46.26;99746.33;1700479;83;20978;-67
2022/03/27 04:15:00;;;;;;;2.55;1.00;;;;;;;2.28;46.33;99759.92;1702608;83;21069;-68
2022/03/27 04:17:36;;;;;;;1.95;1.00;;;;;;;2.30;46.41;99760.17;1699668;84;20958;-67
2022/03/27 04:19:59;;;;;;;1.90;0.93;;;;;;;2.35;46.44;99767.70;1699870;83;21005;-68
2022/03/27 04:22:26;;;;;;;1.67;0.90;;;;;;;2.39;46.53;99773.13;1699857;84;21049;-67
2022/03/27 04:24:53;;;;;;;2.27;0.95;;;;;;;2.47;46.77;99771.62;1702717;83;20931;-70
2022/03/27 04:27:20;;;;;;;2.10;1.30;;;;;;;2.67;46.88;99783.27;1700621;83;20915;-68
2022/03/27 04:29:48;;;;;;;6.03;1.12;;;;;;;2.93;46.82;99787.90;1699812;84;21331;-67
2022/03/27 04:32:17;;;;;;;4.28;1.20;;;;;;;3.25;46.68;99786.80;1690886;83;21586;-66
2022/03/27 04:34:44;;;;;;;2.50;1.00;;;;;;;3.55;46.28;99791.85;1700899;83;20954;-67
2022/03/27 04:37:11;;;;;;;3.25;0.90;;;;;;;3.81;45.55;99798.22;1701125;83;21081;-68
2022/03/27 04:39:38;;;;;;;3.83;1.30;;;;;;;4.03;45.32;99802.14;1700505;83;21034;-71
2022/03/27 04:42:09;;;;;;;1.15;0.85;;;;;;;4.26;44.82;99812.52;1698493;84;21297;-70
2022/03/27 04:44:36;;;;;;;2.62;1.27;;;;;;;4.47;44.41;99815.23;1699695;84;20910;-69
2022/03/27 04:47:06;;;;;;;4.00;1.50;;;;;;;4.78;43.98;99813.09;1702680;83;20954;-66
2022/03/27 04:49:33;;;;;;;2.20;0.90;;;;;;;5.22;43.51;99805.93;1700581;83;20890;-65
2022/03/27 04:52:01;;;;;;;3.65;0.98;;;;;;;5.72;42.72;99805.60;1700467;83;21156;-71
2022/03/27 04:54:31;;;;;;;2.62;1.10;;;;;;;6.25;42.05;99815.03;1699632;84;21266;-68
2022/03/27 04:56:59;;;;;;;1.70;1.12;;;;;;;6.84;40.96;99807.05;1703040;83;20955;-68
2022/03/27 04:59:26;;;;;;;4.00;1.60;;;;;;;7.41;39.76;99810.97;1700580;83;21507;-68
2022/03/27 05:01:53;;;;;;;3.62;1.47;;;;;;;7.89;38.45;99821.45;1703764;83;20954;-66
2022/03/27 05:04:21;;;;;;;3.62;1.42;;;;;;;8.31;37.57;99819.69;1699746;84;20989;-69
2022/03/27 05:06:49;;;;;;;4.40;1.17;;;;;;;8.62;36.56;99823.20;1704246;83;20934;-67
2022/03/27 05:09:18;;;;;;;1.82;1.30;;;;;;;8.90;36.06;99827.11;1700464;83;21025;-70
2022/03/27 05:11:48;;;;;;;1.92;0.95;;;;;;;9.11;34.90;99838.27;1699924;84;21405;-70
2022/03/27 05:14:15;;;;;;;3.27;1.15;;;;;;;9.21;34.55;99844.32;1688667;84;20993;-69
2022/03/27 05:16:44;;;;;;;1.60;0.80;;;;;;;9.41;34.05;99837.84;1701996;83;20883;-70
2022/03/27 05:19:11;;;;;;;1.30;0.75;;;;;;;9.68;33.82;99834.23;1700478;83;21276;-71
2022/03/27 05:21:38;;;;;;;1.17;0.80;;;;;;;9.99;33.12;99843.39;1700414;83;21056;-69
2022/03/27 05:24:09;;;;;;;1.52;0.80;;;;;;;10.26;32.54;99851.70;1698514;83;21050;-66
2022/03/27 05:26:38;;;;;;;1.00;0.70;;;;;;;10.49;31.67;99850.98;1700924;83;21568;-70
2022/03/27 05:29:08;;;;;;;4.22;0.88;;;;;;;10.58;31.02;99849.19;1701679;83;20888;-69
2022/03/27 05:31:36;;;;;;;1.98;0.95;;;;;;;10.62;30.46;99853.18;1746156;81;20911;-72
2022/03/27 05:34:04;;;;;;;1.10;0.70;;;;;;;10.74;30.65;99859.05;1758083;81;21008;-68
2022/03/27 05:36:31;;;;;;;1.85;0.78;;;;;;;11.02;29.90;99867.94;1754945;81;20989;-68
2022/03/27 05:38:58;;;;;;;1.65;0.70;;;;;;;11.30;29.85;99868.95;1753184;81;21440;-71
2022/03/27 05:41:25;;;;;;;2.20;1.02;;;;;;;11.55;29.19;99859.98;1755416;81;20926;-69
2022/03/27 05:43:53;;;;;;;3.45;0.90;;;;;;;11.72;28.81;99869.16;1756206;81;21133;-72
2022/03/27 05:46:21;;;;;;;1.77;0.85;;;;;;;11.90;28.19;99886.78;1752812;81;21054;-68
2022/03/27 05:48:49;;;;;;;1.37;0.62;;;;;;;12.11;28.33;99867.92;1756074;81;21002;-68
2022/03/27 05:51:17;;;;;;;3.17;0.60;;;;;;;12.31;27.84;99869.19;1755456;81;21575;-69
2022/03/27 05:53:45;;;;;;;2.45;1.02;;;;;;;12.49;27.65;99880.14;1755357;81;21044;-69
2022/03/27 05:56:13;;;;;;;2.90;0.70;;;;;;;12.73;27.22;99886.69;1754332;81;21238;-68
2022/03/27 05:58:41;;;;;;;1.07;0.80;;;;;;;12.99;26.77;99896.08;1753176;81;20934;-66
2022/03/27 06:01:09;;;;;;;3.22;1.12;;;;;;;13.27;26.32;99890.27;1756681;81;20974;-68
2022/03/27 06:03:36;;;;;;;4.60;1.25;;;;;;;13.31;25.84;99881.72;1757348;81;20950;-68
2022/03/27 06:06:04;;;;;;;1.80;1.30;;;;;;;13.16;25.81;99894.18;1755963;81;20989;-67
2022/03/27 06:08:32;;;;;;;1.95;0.95;;;;;;;13.17;25.78;99895.83;1757294;81;22261;-67
2022/03/27 06:11:01;;;;;;;2.52;0.72;;;;;;;12.95;25.73;99906.79;1758142;81;21111;-68
2022/03/27 06:13:28;;;;;;;2.02;1.20;;;;;;;12.77;25.62;99898.20;1757449;81;20981;-66
2022/03/27 06:15:55;;;;;;;3.00;1.05;;;;;;;12.22;26.04;99904.91;1756940;81;20985;-69
2022/03/27 06:18:23;;;;;;;1.85;1.00;;;;;;;12.06;26.21;99924.94;1757394;81;20978;-70
2022/03/27 06:20:50;;;;;;;1.20;0.65;;;;;;;11.88;26.70;99910.95;1758072;81;22331;-66
2022/03/27 06:23:17;;;;;;;4.00;0.70;;;;;;;12.03;26.28;99929.27;1753176;80;21052;-69
2022/03/27 06:25:45;;;;;;;1.30;0.60;;;;;;;12.14;26.39;99931.59;1751319;81;20942;-70
2022/03/27 06:28:12;;;;;;;3.12;0.62;;;;;;;12.32;26.01;99910.88;1753838;81;20982;-69
2022/03/27 06:30:40;;;;;;;2.55;0.70;;;;;;;12.48;25.97;99932.67;1757419;80;21436;-67
2022/03/27 06:33:08;;;;;;;1.12;0.80;;;;;;;12.84;25.48;99925.02;1755759;81;21691;-68
2022/03/27 06:35:37;;;;;;;1.50;1.12;;;;;;;13.01;24.80;99922.59;1754761;81;20974;-68
2022/03/27 06:38:05;;;;;;;2.90;0.90;;;;;;;13.01;24.90;99937.28;1755866;81;21020;-65
2022/03/27 06:40:33;;;;;;;2.40;1.98;;;;;;;12.92;24.92;99945.02;1756662;81;20983;-67
2022/03/27 06:43:00;;;;;;;1.22;1.07;;;;;;;12.67;24.57;99936.79;1758431;80;20875;-69
2022/03/27 06:45:28;;;;;;;1.52;1.12;;;;;;;12.51;24.58;99938.17;1754443;81;21236;-70
2022/03/27 06:47:56;;;;;;;2.25;0.70;;;;;;;12.40;24.94;99939.37;1755643;81;20915;-67
2022/03/27 06:50:23;;;;;;;2.27;0.80;;;;;;;12.54;25.10;99932.50;1757636;81;20934;-69
2022/03/27 06:52:54;;;;;;;2.75;1.30;;;;;;;12.68;24.51;99934.43;1754307;81;20970;-70
2022/03/27 06:55:21;;;;;;;1.35;1.25;;;;;;;12.67;24.40;99945.61;1756428;81;20994;-67
2022/03/27 06:57:49;;;;;;;1.85;0.60;;;;;;;12.31;24.74;99937.70;1755938;81;21312;-67
2022/03/27 07:03:06;;;;;;;2.30;0.98;;;;;;;12.57;24.24;99956.98;1758183;81;21133;-68
2022/03/27 07:05:39;;;;;;;2.00;1.25;;;;;;;12.63;24.45;99942.97;1755431;81;20970;-69
2022/03/27 07:08:13;;;;;;;2.17;0.57;;;;;;;12.57;24.10;99953.48;1753718;81;21439;-67
2022/03/27 07:10:44;;;;;;;1.90;0.45;;;;;;;12.12;24.53;99970.91;1755584;81;20966;-68
2022/03/27 07:13:13;;;;;;;1.07;0.80;;;;;;;11.85;24.94;99968.61;1757591;81;20938;-67
2022/03/27 07:15:42;;;;;;;1.60;1.30;;;;;;;11.44;25.73;99981.53;1757569;81;20989;-67
2022/03/27 07:18:10;;;;;;;1.27;1.17;;;;;;;11.12;26.15;99988.44;1754635;81;21009;-69
2022/03/27 07:20:45;;;;;;;1.50;1.07;;;;;;;10.77;26.64;99985.95;1755476;81;21472;-68
2022/03/27 07:23:11;;;;;;;1.32;1.02;;;;;;;10.42;27.29;99984.77;1756568;81;21249;-68
2022/03/27 07:25:41;;;;;;;1.47;0.82;;;;;;;10.06;27.94;99983.16;1757480;81;20895;-69
2022/03/27 07:28:10;;;;;;;5.60;1.15;;;;;;;9.72;28.37;100009.13;1751263;81;21543;-68
2022/03/27 07:30:37;;;;;;;0.90;0.60;;;;;;;9.41;28.80;100007.80;1748224;81;21566;-68
2022/03/27 07:33:06;;;;;;;1.98;0.98;;;;;;;9.11;29.19;100005.48;1728833;82;20899;-68
2022/03/27 07:35:34;;;;;;;1.82;0.70;;;;;;;9.19;29.29;100018.36;1727767;82;21277;-68
2022/03/27 07:38:02;;;;;;;0.68;0.50;;;;;;;9.22;29.52;100011.92;1728330;82;21008;-67
2022/03/27 07:40:29;;;;;;;1.50;0.70;;;;;;;9.56;29.24;100010.30;1728838;82;20961;-68
2022/03/27 07:42:57;;;;;;;4.53;1.07;;;;;;;9.75;29.03;100010.66;1729324;82;20887;-68
2022/03/27 07:45:27;;;;;;;4.22;0.88;;;;;;;9.97;29.15;100029.26;1728790;82;20982;-69
2022/03/27 07:47:55;;;;;;;1.55;0.78;;;;;;;10.22;28.82;100028.52;1728627;82;21264;-67
2022/03/27 07:50:26;;;;;;;2.00;0.90;;;;;;;10.40;28.56;100020.01;1727599;82;20994;-69
2022/03/27 07:52:53;;;;;;;1.98;1.00;;;;;;;10.90;28.18;100012.95;1728752;82;21006;-68
2022/03/27 07:55:21;;;;;;;1.45;0.53;;;;;;;11.22;28.04;100014.08;1728574;82;20915;-68
2022/03/27 07:57:49;;;;;;;1.87;0.78;;;;;;;11.32;27.44;100012.95;1725271;83;21075;-67
2022/03/27 08:00:17;;;;;;;2.37;1.20;;;;;;;11.69;26.75;100017.41;1727955;82;21102;-69
2022/03/27 08:02:45;;;;;;;2.00;0.90;;;;;;;12.10;26.21;100016.92;1727134;82;20946;-69
2022/03/27 08:05:13;;;;;;;1.70;0.50;;;;;;;12.50;26.06;100008.55;1724929;83;20978;-68
2022/03/27 08:07:41;;;;;;;0.80;0.60;;;;;;;13.19;25.42;100010.54;1728570;82;20971;-68
2022/03/27 08:10:11;;;;;;;0.62;0.40;;;;;;;13.59;24.38;100015.15;1719644;82;21556;-68
2022/03/27 08:12:40;;;;;;;2.35;0.88;;;;;;;14.00;23.77;100013.55;1728596;82;21582;-71
2022/03/27 08:15:08;;;;;;;1.07;0.50;;;;;;;14.33;23.66;99996.22;1732641;82;20903;-68
2022/03/27 08:17:36;;;;;;;2.62;0.42;;;;;;;14.60;23.44;99999.61;1728646;82;21002;-71
2022/03/27 08:20:05;;;;;;;2.08;0.70;;;;;;;15.12;22.69;99994.67;1728550;82;21576;-72
2022/03/27 08:22:34;;;;;;;1.60;0.80;;;;;;;15.40;22.01;100007.19;1727027;82;20978;-70
2022/03/27 08:25:01;;;;;;;2.22;1.30;;;;;;;15.66;21.84;100013.89;1724977;82;21255;-66
2022/03/27 08:27:32;;;;;;;1.20;0.65;;;;;;;15.97;21.80;100010.39;1727781;82;20944;-70
2022/03/27 08:30:00;;;;;;;1.15;0.65;;;;;;;16.44;21.30;100003.05;1728317;82;21465;-66
2022/03/27 08:32:27;;;;;;;3.62;0.80;;;;;;;16.80;21.14;99999.71;1748844;81;20967;-65
2022/03/27 08:34:55;;;;;;;1.45;0.68;;;;;;;17.23;20.77;99985.03;1755542;81;20997;-63
2022/03/27 08:37:22;;;;;;;1.90;0.80;;;;;;;17.42;20.43;99994.72;1755114;81;21525;-67
2022/03/27 08:39:52;;;;;;;1.40;0.55;;;;;;;17.67;20.38;99998.56;1753132;81;21441;-66
2022/03/27 08:42:20;;;;;;;1.62;0.70;;;;;;;17.63;20.16;99993.27;1753593;80;20910;-69
2022/03/27 08:44:47;;;;;;;3.85;0.75;;;;;;;17.34;20.10;99990.89;1748961;80;21484;-67
2022/03/27 08:47:26;;;;;;;2.50;0.65;;;;;;;17.32;20.26;100009.06;1747145;81;20992;-67
2022/03/27 08:50:14;;;;;;;1.95;0.50;;;;;;;17.10;20.23;100010.52;1752088;81;21741;-68
2022/03/27 08:52:55;;;;;;;0.85;0.47;;;;;;;16.92;20.03;100013.44;1757309;81;21527;-68
2022/03/27 08:55:46;;;;;;;0.45;0.40;;;;;;;16.92;19.70;99998.66;1753017;81;20970;-68
2022/03/27 08:58:13;;;;;;;2.70;0.50;;;;;;;16.84;19.89;100010.37;1746567;81;21006;-65
2022/03/27 09:00:44;;;;;;;0.75;0.45;;;;;;;17.38;20.19;100014.98;1755423;81;20985;-69
2022/03/27 09:03:14;;;;;;;1.67;1.05;;;;;;;17.89;19.29;100017.54;1755443;81;21275;-66
2022/03/27 09:05:42;;;;;;;3.00;0.60;;;;;;;18.24;18.83;100007.44;1752326;81;20956;-69
2022/03/27 09:08:12;;;;;;;2.55;0.72;;;;;;;17.85;18.86;100009.06;1752857;81;20957;-67
2022/03/27 09:10:41;;;;;;;1.60;0.57;;;;;;;18.17;18.50;100011.46;1750127;81;21580;-66
2022/03/27 09:13:15;;;;;;;0.45;0.45;;;;;;;18.13;18.54;100013.44;1748250;81;20993;-67
2022/03/27 09:15:46;;;;;;;0.67;0.53;;;;;;;18.04;18.49;100013.34;1755876;81;20958;-67
2022/03/27 09:18:16;;;;;;;1.65;0.75;;;;;;;18.30;18.38;100016.05;1724824;80;20962;-70
2022/03/27 09:20:48;;;;;;;2.10;0.60;;;;;;;18.45;18.20;100008.06;1757813;81;21649;-68
2022/03/27 09:23:25;;;;;;;1.87;0.53;;;;;;;18.55;18.26;100021.14;1741613;81;21519;-69
2022/03/27 09:26:05;;;;;;;1.05;0.60;;;;;;;18.95;18.05;100014.63;1750915;81;20950;-68
2022/03/27 09:28:45;;;;;;;1.40;0.80;;;;;;;19.26;17.81;100011.75;1755340;81;21198;-68
2022/03/27 09:31:23;;;;;;;2.37;1.12;;;;;;;19.67;17.50;100008.98;1752411;81;20997;-67
2022/03/27 09:33:56;;;;;;;2.92;0.72;;;;;;;20.08;17.01;100011.73;1737609;82;21456;-67
2022/03/27 09:36:42;;;;;;;0.98;0.60;;;;;;;20.35;16.64;100017.80;1735959;82;20994;-66
2022/03/27 09:39:19;;;;;;;0.95;0.42;;;;;;;20.36;16.20;100018.11;1724872;82;21556;-67
2022/03/27 09:41:58;;;;;;;1.85;0.60;;;;;;;20.21;16.16;100008.41;1715586;82;21297;-66
2022/03/27 09:44:32;;;;;;;0.60;0.35;;;;;;;20.23;15.79;99996.05;1734784;82;21001;-68
2022/03/27 09:47:08;;;;;;;4.12;0.85;;;;;;;20.23;15.71;100009.56;1734284;82;20942;-68
2022/03/27 09:49:43;;;;;;;1.02;0.53;;;;;;;20.25;15.88;100011.02;1731078;82;20934;-69
2022/03/27 09:52:16;;;;;;;1.67;0.80;;;;;;;20.48;15.87;100010.41;1730617;82;21552;-69
2022/03/27 09:55:09;;;;;;;2.00;1.50;;;;;;;20.54;15.41;99997.38;1736621;82;20974;-66
2022/03/27 09:57:41;;;;;;;1.65;0.70;;;;;;;20.44;15.32;100003.77;1728790;82;20926;-65
2022/03/27 10:00:19;;;;;;;1.95;0.50;;;;;;;20.46;15.32;100004.92;1732536;82;21021;-65
2022/03/27 10:02:48;;;;;;;0.82;0.60;;;;;;;20.52;15.14;99987.28;1737078;82;21013;-66
2022/03/27 10:05:22;;;;;;;1.12;0.75;;;;;;;20.27;14.76;99994.58;1725888;82;21097;-66
2022/03/27 10:07:53;;;;;;;2.02;0.60;;;;;;;20.00;15.20;99993.92;1730310;82;21468;-67
2022/03/27 10:10:24;;;;;;;1.55;0.50;;;;;;;19.73;15.70;99998.38;1704503;83;21430;-66
2022/03/27 10:12:53;;;;;;;1.55;0.40;;;;;;;19.41;15.83;99997.50;1729825;82;21358;-68
2022/03/27 10:15:27;;;;;;;1.47;0.80;;;;;;;18.41;16.22;99987.95;1736765;82;20906;-67
2022/03/27 10:18:00;;;;;;;1.75;0.70;;;;;;;17.89;16.72;99998.70;1732675;82;20910;-69
2022/03/27 10:20:34;;;;;;;2.67;0.70;;;;;;;17.72;16.89;100000.13;1736646;82;21312;-68
2022/03/27 10:23:10;;;;;;;0.65;0.60;;;;;;;17.36;16.91;99990.17;1736755;82;25170;-69
2022/03/27 10:25:44;;;;;;;0.90;0.50;;;;;;;17.03;17.24;99996.73;1736059;82;21409;-69
2022/03/27 10:28:14;;;;;;;1.27;0.53;;;;;;;16.76;17.27;100007.03;1724419;82;20977;-68
2022/03/27 10:30:44;;;;;;;4.33;0.53;;;;;;;16.38;17.31;100002.48;1736141;82;21451;-70
2022/03/27 10:33:14;;;;;;;2.25;0.60;;;;;;;16.13;17.54;99998.06;1753612;81;21253;-68
2022/03/27 10:35:59;;;;;;;2.65;0.80;;;;;;;15.97;18.06;100003.19;1756283;81;20982;-68
2022/03/27 10:39:16;;;;;;;0.88;0.53;;;;;;;15.94;18.36;100000.88;1747216;81;20940;-70
2022/03/27 10:41:49;;;;;;;0.85;0.60;;;;;;;15.91;18.23;99997.73;1752842;81;21053;-67
2022/03/27 10:44:40;;;;;;;1.90;0.62;;;;;;;15.62;18.04;99996.50;1744845;81;20862;-69
2022/03/27 10:47:18;;;;;;;2.25;0.50;;;;;;;15.39;18.31;99999.32;1714209;80;21903;-69
2022/03/27 10:50:08;;;;;;;2.98;0.57;;;;;;;15.39;18.79;99992.62;1757647;81;20965;-68
2022/03/27 10:52:44;;;;;;;1.22;0.47;;;;;;;15.44;18.72;100009.80;1747428;81;21421;-67
2022/03/27 10:55:15;;;;;;;1.77;0.77;;;;;;;15.24;18.23;100001.20;1747205;81;21054;-68
2022/03/27 10:57:51;;;;;;;1.95;0.70;;;;;;;14.94;18.36;99998.25;1754714;81;21532;-70
2022/03/27 11:00:40;;;;;;;1.27;0.47;;;;;;;14.76;18.85;99995.92;1752480;81;21210;-69
2022/03/27 11:03:08;;;;;;;1.77;0.60;;;;;;;14.72;19.16;100004.85;1752465;81;21433;-68
2022/03/27 11:05:52;;;;;;;1.30;0.42;;;;;;;14.61;18.50;99985.22;1751463;81;20930;-69
2022/03/27 11:08:26;;;;;;;2.08;0.40;;;;;;;14.34;18.69;99992.51;1746955;81;20907;-70
2022/03/27 11:11:01;;;;;;;0.78;0.40;;;;;;;14.11;18.71;99989.85;1758209;81;20907;-67
2022/03/27 11:13:39;;;;;;;0.93;0.50;;;;;;;13.93;18.29;99992.51;1757523;81;21485;-70
2022/03/27 11:16:14;;;;;;;2.83;0.45;;;;;;;13.67;18.21;100010.75;1755171;81;20941;-70
2022/03/27 11:18:48;;;;;;;5.00;0.65;;;;;;;13.38;18.31;99996.23;1757430;81;21077;-69
2022/03/27 11:21:33;;;;;;;0.57;0.30;;;;;;;13.11;18.77;99990.05;1708135;83;21516;-70
2022/03/27 11:24:12;;;;;;;1.17;0.50;;;;;;;13.03;18.92;99994.55;1756337;81;20974;-73
2022/03/27 11:26:42;;;;;;;1.85;0.40;;;;;;;12.86;18.54;99989.76;1757564;81;21213;-69
2022/03/27 11:29:24;;;;;;;2.15;0.60;;;;;;;12.70;18.58;99985.80;1744497;81;21581;-71
2022/03/27 11:32:09;;;;;;;0.60;0.40;;;;;;;12.57;18.87;99989.02;1752575;81;21000;-70
2022/03/27 11:34:39;;;;;;;1.62;0.78;;;;;;;12.48;19.12;99994.55;1736862;82;20931;-70
2022/03/27 11:37:27;;;;;;;2.47;0.80;;;;;;;12.41;19.61;99987.70;1715553;82;20954;-70
2022/03/27 11:39:56;;;;;;;1.47;0.57;;;;;;;12.50;20.12;99979.19;1737450;82;21279;-69
2022/03/27 11:42:29;;;;;;;1.07;0.70;;;;;;;12.62;20.29;99988.52;1735279;82;21491;-69
2022/03/27 11:45:20;;;;;;;0.33;0.30;;;;;;;12.73;20.54;99989.47;1735269;82;20918;-70
2022/03/27 11:47:54;;;;;;;0.62;0.45;;;;;;;12.86;20.73;99983.08;1737334;82;21025;-69
2022/03/27 11:50:29;;;;;;;2.80;0.90;;;;;;;12.90;20.86;99980.41;1736125;82;20871;-70
2022/03/27 11:52:58;;;;;;;0.93;0.78;;;;;;;12.94;20.84;99978.55;1737227;82;21295;-68
2022/03/27 11:55:34;;;;;;;4.47;0.90;;;;;;;12.98;20.61;99972.38;1736829;82;20947;-71
2022/03/27 11:58:03;;;;;;;0.88;0.50;;;;;;;13.02;20.47;99979.02;1736973;82;21076;-71